Terminal Aerodrome Forecast
Issued by NWS North Platte, NE

Home | Current Version | Previous Version | Text Only | Print | Product List | Glossary On
Versions: 1 2 3 4 5 6 7 8 9 10 11 12 13 14 15
000
FTUS43 KLBF 150111 AAA
TAFVTN
TAF AMD
KVTN 150111Z 1501/1524 32014G20KT P6SM SKC
     FM150500 30009KT P6SM SKC
     FM150900 26006KT P6SM SCT250
     FM151800 30013G20KT P6SM FEW250=

USA.gov is the U.S. government's official web portal to all federal, state and local government web resources and services.